sensor_id;sensor_type;location;lat;lon;timestamp;pressure;altitude;pressure_sealevel;temperature;humidity
1832;BME280;1680;48.106;11.708;2023-05-14T00:02:06;95434.56;;;12.28;100.00
1832;BME280;1680;48.106;11.708;2023-05-14T00:04:35;95437.97;;;12.28;100.00
1832;BME280;1680;48.106;11.708;2023-05-14T00:07:02;95428.31;;;12.17;100.00
1832;BME280;1680;48.106;11.708;2023-05-14T00:09:30;95431.97;;;12.16;100.00
1832;BME280;1680;48.106;11.708;2023-05-14T00:11:57;95438.03;;;12.17;100.00
1832;BME280;1680;48.106;11.708;2023-05-14T00:14:25;95419.69;;;12.05;100.00
1832;BME280;1680;48.106;11.708;2023-05-14T00:16:52;95435.66;;;12.04;100.00
1832;BME280;1680;48.106;11.708;2023-05-14T00:19:19;95421.75;;;12.03;100.00
1832;BME280;1680;48.106;11.708;2023-05-14T00:21:48;95426.16;;;12.14;100.00
1832;BME280;1680;48.106;11.708;2023-05-14T00:24:15;95418.41;;;12.08;100.00
1832;BME280;1680;48.106;11.708;2023-05-14T00:26:42;95404.56;;;12.12;100.00
1832;BME280;1680;48.106;11.708;2023-05-14T00:29:10;95388.13;;;12.05;100.00
1832;BME280;1680;48.106;11.708;2023-05-14T00:31:37;95414.94;;;12.19;100.00
1832;BME280;1680;48.106;11.708;2023-05-14T00:34:04;95408.28;;;12.28;100.00
1832;BME280;1680;48.106;11.708;2023-05-14T00:36:32;95411.69;;;12.28;100.00
1832;BME280;1680;48.106;11.708;2023-05-14T00:39:00;95415.44;;;12.32;100.00
1832;BME280;1680;48.106;11.708;2023-05-14T00:41:28;95404.94;;;12.32;100.00
1832;BME280;1680;48.106;11.708;2023-05-14T00:43:58;95414.41;;;12.33;100.00
1832;BME280;1680;48.106;11.708;2023-05-14T00:46:25;95414.31;;;12.28;100.00
1832;BME280;1680;48.106;11.708;2023-05-14T00:48:53;95395.16;;;12.16;100.00
1832;BME280;1680;48.106;11.708;2023-05-14T00:51:20;95417.53;;;12.30;100.00
1832;BME280;1680;48.106;11.708;2023-05-14T00:53:49;95416.47;;;12.31;100.00
1832;BME280;1680;48.106;11.708;2023-05-14T00:56:18;95413.28;;;12.29;100.00
1832;BME280;1680;48.106;11.708;2023-05-14T00:58:45;95415.59;;;12.26;100.00
1832;BME280;1680;48.106;11.708;2023-05-14T01:01:12;95409.63;;;12.30;100.00
1832;BME280;1680;48.106;11.708;2023-05-14T01:03:40;95413.38;;;12.34;100.00
1832;BME280;1680;48.106;11.708;2023-05-14T01:06:14;95414.31;;;12.28;100.00
1832;BME280;1680;48.106;11.708;2023-05-14T01:08:51;95424.84;;;12.28;100.00
1832;BME280;1680;48.106;11.708;2023-05-14T01:11:28;95409.72;;;12.35;100.00
1832;BME280;1680;48.106;11.708;2023-05-14T01:14:02;95409.66;;;12.47;100.00
1832;BME280;1680;48.106;11.708;2023-05-14T01:16:33;95407.00;;;12.30;100.00
1832;BME280;1680;48.106;11.708;2023-05-14T01:19:01;95408.59;;;12.31;100.00
1832;BME280;1680;48.106;11.708;2023-05-14T01:21:41;95399.00;;;12.25;100.00
1832;BME280;1680;48.106;11.708;2023-05-14T01:24:09;95401.56;;;12.20;100.00
1832;BME280;1680;48.106;11.708;2023-05-14T01:26:36;95397.41;;;12.24;100.00
1832;BME280;1680;48.106;11.708;2023-05-14T01:29:10;95397.41;;;12.24;100.00
1832;BME280;1680;48.106;11.708;2023-05-14T01:31:39;95392.88;;;12.20;100.00
1832;BME280;1680;48.106;11.708;2023-05-14T01:34:10;95395.81;;;12.23;100.00
1832;BME280;1680;48.106;11.708;2023-05-14T01:36:40;95384.03;;;12.26;100.00
1832;BME280;1680;48.106;11.708;2023-05-14T01:39:08;95381.06;;;12.22;100.00
1832;BME280;1680;48.106;11.708;2023-05-14T01:41:36;95392.16;;;12.24;100.00
1832;BME280;1680;48.106;11.708;2023-05-14T01:44:04;95374.78;;;12.23;100.00
1832;BME280;1680;48.106;11.708;2023-05-14T01:46:32;95377.56;;;12.17;100.00
1832;BME280;1680;48.106;11.708;2023-05-14T01:48:59;95385.41;;;12.28;100.00
1832;BME280;1680;48.106;11.708;2023-05-14T01:51:27;95381.00;;;12.17;100.00
1832;BME280;1680;48.106;11.708;2023-05-14T01:53:55;95383.63;;;12.17;100.00
1832;BME280;1680;48.106;11.708;2023-05-14T01:56:23;95378.84;;;12.14;100.00
1832;BME280;1680;48.106;11.708;2023-05-14T01:58:51;95350.72;;;11.87;100.00
1832;BME280;1680;48.106;11.708;2023-05-14T02:01:20;95373.28;;;11.99;100.00
1832;BME280;1680;48.106;11.708;2023-05-14T02:03:47;95384.13;;;12.03;100.00
1832;BME280;1680;48.106;11.708;2023-05-14T02:06:15;95381.75;;;12.01;100.00
1832;BME280;1680;48.106;11.708;2023-05-14T02:08:42;95375.94;;;11.99;100.00
1832;BME280;1680;48.106;11.708;2023-05-14T02:11:11;95365.31;;;11.94;100.00
1832;BME280;1680;48.106;11.708;2023-05-14T02:13:38;95346.63;;;11.79;100.00
1832;BME280;1680;48.106;11.708;2023-05-14T02:16:06;95372.25;;;12.00;100.00
1832;BME280;1680;48.106;11.708;2023-05-14T02:18:33;95373.75;;;11.96;100.00
1832;BME280;1680;48.106;11.708;2023-05-14T02:21:00;95358.22;;;11.95;100.00
1832;BME280;1680;48.106;11.708;2023-05-14T02:23:28;95378.09;;;12.02;100.00
1832;BME280;1680;48.106;11.708;2023-05-14T02:25:55;95381.88;;;11.95;100.00
1832;BME280;1680;48.106;11.708;2023-05-14T02:28:23;95316.34;;;11.61;100.00
1832;BME280;1680;48.106;11.708;2023-05-14T02:30:51;95384.84;;;11.98;100.00
1832;BME280;1680;48.106;11.708;2023-05-14T02:33:18;95370.91;;;11.98;100.00
1832;BME280;1680;48.106;11.708;2023-05-14T02:35:45;95380.59;;;11.97;100.00
1832;BME280;1680;48.106;11.708;2023-05-14T02:38:13;95374.88;;;12.00;100.00
1832;BME280;1680;48.106;11.708;2023-05-14T02:40:40;95374.00;;;11.95;100.00
1832;BME280;1680;48.106;11.708;2023-05-14T02:43:07;95363.91;;;12.03;100.00
1832;BME280;1680;48.106;11.708;2023-05-14T02:45:36;95371.69;;;11.98;100.00
1832;BME280;1680;48.106;11.708;2023-05-14T02:48:03;95374.00;;;11.95;100.00
1832;BME280;1680;48.106;11.708;2023-05-14T02:50:30;95364.53;;;11.94;100.00
1832;BME280;1680;48.106;11.708;2023-05-14T02:52:58;95304.78;;;11.50;100.00
1832;BME280;1680;48.106;11.708;2023-05-14T02:55:26;95362.59;;;11.89;100.00
1832;BME280;1680;48.106;11.708;2023-05-14T02:57:53;95356.53;;;11.89;100.00
1832;BME280;1680;48.106;11.708;2023-05-14T03:00:21;95363.84;;;11.87;100.00
1832;BME280;1680;48.106;11.708;2023-05-14T03:02:49;95358.69;;;11.92;100.00
1832;BME280;1680;48.106;11.708;2023-05-14T03:05:17;95362.09;;;11.92;100.00
1832;BME280;1680;48.106;11.708;2023-05-14T03:07:44;95361.94;;;11.82;100.00
1832;BME280;1680;48.106;11.708;2023-05-14T03:10:11;95361.66;;;11.95;100.00
1832;BME280;1680;48.106;11.708;2023-05-14T03:12:38;95348.09;;;11.87;100.00
1832;BME280;1680;48.106;11.708;2023-05-14T03:15:06;95353.47;;;11.80;100.00
1832;BME280;1680;48.106;11.708;2023-05-14T03:17:34;95350.97;;;11.85;100.00
1832;BME280;1680;48.106;11.708;2023-05-14T03:20:03;95346.75;;;11.73;100.00
1832;BME280;1680;48.106;11.708;2023-05-14T03:22:30;95345.59;;;11.80;100.00
1832;BME280;1680;48.106;11.708;2023-05-14T03:24:57;95347.09;;;11.76;100.00
1832;BME280;1680;48.106;11.708;2023-05-14T03:27:24;95341.81;;;11.76;100.00
1832;BME280;1680;48.106;11.708;2023-05-14T03:29:53;95341.81;;;11.76;100.00
1832;BME280;1680;48.106;11.708;2023-05-14T03:32:23;95283.25;;;11.37;100.00
1832;BME280;1680;48.106;11.708;2023-05-14T03:34:50;95344.28;;;11.66;100.00
1832;BME280;1680;48.106;11.708;2023-05-14T03:37:19;95350.88;;;11.69;100.00
1832;BME280;1680;48.106;11.708;2023-05-14T03:39:46;95349.31;;;11.68;100.00
1832;BME280;1680;48.106;11.708;2023-05-14T03:42:13;95338.66;;;11.74;100.00
1832;BME280;1680;48.106;11.708;2023-05-14T03:44:40;95344.84;;;11.68;100.00
1832;BME280;1680;48.106;11.708;2023-05-14T03:47:07;95345.72;;;11.74;100.00
1832;BME280;1680;48.106;11.708;2023-05-14T03:49:34;95350.09;;;11.68;100.00
1832;BME280;1680;48.106;11.708;2023-05-14T03:52:02;95344.56;;;11.81;100.00
1832;BME280;1680;48.106;11.708;2023-05-14T03:54:31;95351.97;;;11.84;100.00
1832;BME280;1680;48.106;11.708;2023-05-14T03:56:58;95338.84;;;11.84;100.00
1832;BME280;1680;48.106;11.708;2023-05-14T03:59:26;95338.16;;;11.77;100.00
1832;BME280;1680;48.106;11.708;2023-05-14T04:01:53;95339.13;;;11.71;100.00
1832;BME280;1680;48.106;11.708;2023-05-14T04:04:20;95341.38;;;11.79;100.00
1832;BME280;1680;48.106;11.708;2023-05-14T04:06:47;95338.66;;;11.74;100.00
1832;BME280;1680;48.106;11.708;2023-05-14T04:09:15;95351.22;;;11.72;100.00
1832;BME280;1680;48.106;11.708;2023-05-14T04:11:43;95350.09;;;11.68;100.00
1832;BME280;1680;48.106;11.708;2023-05-14T04:14:10;95356.94;;;11.69;100.00
1832;BME280;1680;48.106;11.708;2023-05-14T04:16:37;95346.44;;;11.69;100.00
1832;BME280;1680;48.106;11.708;2023-05-14T04:19:04;95344.69;;;11.75;100.00
1832;BME280;1680;48.106;11.708;2023-05-14T04:21:31;95346.03;;;11.89;100.00
1832;BME280;1680;48.106;11.708;2023-05-14T04:23:58;95349.63;;;11.71;100.00
1832;BME280;1680;48.106;11.708;2023-05-14T04:26:26;95339.91;;;11.72;100.00
1832;BME280;1680;48.106;11.708;2023-05-14T04:28:54;95344.38;;;11.71;100.00
1832;BME280;1680;48.106;11.708;2023-05-14T04:31:22;95351.22;;;11.72;100.00
1832;BME280;1680;48.106;11.708;2023-05-14T04:33:49;95356.50;;;11.72;100.00
1832;BME280;1680;48.106;11.708;2023-05-14T04:36:16;95354.06;;;11.71;100.00
1832;BME280;1680;48.106;11.708;2023-05-14T04:38:44;95352.16;;;11.66;100.00
1832;BME280;1680;48.106;11.708;2023-05-14T04:41:11;95357.72;;;11.70;100.00
1832;BME280;1680;48.106;11.708;2023-05-14T04:43:38;95353.28;;;11.70;100.00
1832;BME280;1680;48.106;11.708;2023-05-14T04:46:07;95359.75;;;11.79;100.00
1832;BME280;1680;48.106;11.708;2023-05-14T04:48:34;95354.63;;;11.84;100.00
1832;BME280;1680;48.106;11.708;2023-05-14T04:51:01;95356.53;;;11.89;100.00
1832;BME280;1680;48.106;11.708;2023-05-14T04:53:28;95342.19;;;11.80;100.00
1832;BME280;1680;48.106;11.708;2023-05-14T04:55:56;95353.41;;;11.75;100.00
1832;BME280;1680;48.106;11.708;2023-05-14T04:58:23;95363.34;;;11.73;100.00
1832;BME280;1680;48.106;11.708;2023-05-14T05:00:53;95363.78;;;11.70;100.00
1832;BME280;1680;48.106;11.708;2023-05-14T05:03:21;95354.31;;;11.69;100.00
1832;BME280;1680;48.106;11.708;2023-05-14T05:05:48;95359.47;;;11.64;100.00
1832;BME280;1680;48.106;11.708;2023-05-14T05:08:16;95356.25;;;11.74;100.00
1832;BME280;1680;48.106;11.708;2023-05-14T05:10:43;95363.91;;;11.75;100.00
1832;BME280;1680;48.106;11.708;2023-05-14T05:13:10;95359.69;;;11.74;100.00
1832;BME280;1680;48.106;11.708;2023-05-14T05:15:37;95312.00;;;11.55;100.00
1832;BME280;1680;48.106;11.708;2023-05-14T05:18:04;95352.44;;;11.81;100.00
1832;BME280;1680;48.106;11.708;2023-05-14T05:20:33;95355.78;;;11.77;100.00
1832;BME280;1680;48.106;11.708;2023-05-14T05:23:00;95353.94;;;11.77;100.00
1832;BME280;1680;48.106;11.708;2023-05-14T05:25:27;95359.41;;;11.87;100.00
1832;BME280;1680;48.106;11.708;2023-05-14T05:27:54;95352.31;;;11.88;100.00
1832;BME280;1680;48.106;11.708;2023-05-14T05:30:22;95355.94;;;11.98;100.00
1832;BME280;1680;48.106;11.708;2023-05-14T05:32:49;95355.69;;;12.00;100.00
1832;BME280;1680;48.106;11.708;2023-05-14T05:35:16;95353.06;;;12.00;100.00
1832;BME280;1680;48.106;11.708;2023-05-14T05:37:44;95356.09;;;12.08;100.00
1832;BME280;1680;48.106;11.708;2023-05-14T05:40:12;95369.66;;;12.17;100.00
1832;BME280;1680;48.106;11.708;2023-05-14T05:42:40;95358.72;;;12.08;100.00
1832;BME280;1680;48.106;11.708;2023-05-14T05:45:07;95356.03;;;12.03;100.00
1832;BME280;1680;48.106;11.708;2023-05-14T05:47:35;95360.25;;;12.04;100.00
1832;BME280;1680;48.106;11.708;2023-05-14T05:50:02;95367.09;;;12.05;100.00
1832;BME280;1680;48.106;11.708;2023-05-14T05:52:29;95363.81;;;11.98;100.00
1832;BME280;1680;48.106;11.708;2023-05-14T05:54:58;95369.34;;;12.13;100.00
1832;BME280;1680;48.106;11.708;2023-05-14T05:57:25;95363.53;;;12.11;100.00
1832;BME280;1680;48.106;11.708;2023-05-14T05:59:52;95366.72;;;12.13;100.00
1832;BME280;1680;48.106;11.708;2023-05-14T06:02:19;95352.13;;;12.06;100.00
1832;BME280;1680;48.106;11.708;2023-05-14T06:04:47;95362.97;;;12.09;100.00
1832;BME280;1680;48.106;11.708;2023-05-14T06:07:14;95358.38;;;12.16;100.00
1832;BME280;1680;48.106;11.708;2023-05-14T06:09:41;95360.31;;;12.09;100.00
1832;BME280;1680;48.106;11.708;2023-05-14T06:12:09;95359.00;;;12.23;100.00
1832;BME280;1680;48.106;11.708;2023-05-14T06:14:37;95354.31;;;12.25;100.00
1832;BME280;1680;48.106;11.708;2023-05-14T06:17:04;95352.16;;;12.22;100.00
1832;BME280;1680;48.106;11.708;2023-05-14T06:19:31;95349.72;;;12.32;100.00
1832;BME280;1680;48.106;11.708;2023-05-14T06:21:58;95346.94;;;12.39;100.00
1832;BME280;1680;48.106;11.708;2023-05-14T06:24:25;95348.19;;;12.36;100.00
1832;BME280;1680;48.106;11.708;2023-05-14T06:26:52;95345.28;;;12.49;100.00
1832;BME280;1680;48.106;11.708;2023-05-14T06:29:21;95354.88;;;12.44;100.00
1832;BME280;1680;48.106;11.708;2023-05-14T06:31:48;95343.03;;;12.41;100.00
1832;BME280;1680;48.106;11.708;2023-05-14T06:34:15;95353.78;;;12.56;100.00
1832;BME280;1680;48.106;11.708;2023-05-14T06:36:42;95347.41;;;12.52;100.00
1832;BME280;1680;48.106;11.708;2023-05-14T06:39:09;95361.22;;;12.59;100.00
1832;BME280;1680;48.106;11.708;2023-05-14T06:41:37;95352.19;;;12.55;100.00
1832;BME280;1680;48.106;11.708;2023-05-14T06:44:04;95359.16;;;12.61;100.00
1832;BME280;1680;48.106;11.708;2023-05-14T06:46:32;95352.84;;;12.62;100.00
1832;BME280;1680;48.106;11.708;2023-05-14T06:48:59;95354.44;;;12.63;100.00
1832;BME280;1680;48.106;11.708;2023-05-14T06:51:27;95357.53;;;12.60;100.00
1832;BME280;1680;48.106;11.708;2023-05-14T06:53:54;95354.59;;;12.73;100.00
1832;BME280;1680;48.106;11.708;2023-05-14T06:56:21;95352.84;;;12.78;100.00
1832;BME280;1680;48.106;11.708;2023-05-14T06:58:48;95352.28;;;12.76;100.00
1832;BME280;1680;48.106;11.708;2023-05-14T07:01:16;95343.97;;;12.68;100.00
1832;BME280;1680;48.106;11.708;2023-05-14T07:03:44;95332.59;;;12.62;100.00
1832;BME280;1680;48.106;11.708;2023-05-14T07:06:11;95331.47;;;12.58;100.00
1832;BME280;1680;48.106;11.708;2023-05-14T07:08:39;95330.50;;;12.64;100.00
1832;BME280;1680;48.106;11.708;2023-05-14T07:11:06;95323.97;;;12.67;100.00
1832;BME280;1680;48.106;11.708;2023-05-14T07:13:33;95334.03;;;12.70;100.00
1832;BME280;1680;48.106;11.708;2023-05-14T07:16:00;95329.78;;;12.69;100.00
1832;BME280;1680;48.106;11.708;2023-05-14T07:18:27;95296.91;;;12.50;100.00
1832;BME280;1680;48.106;11.708;2023-05-14T07:20:56;95330.25;;;12.66;100.00
1832;BME280;1680;48.106;11.708;2023-05-14T07:23:24;95323.66;;;12.63;100.00
1832;BME280;1680;48.106;11.708;2023-05-14T07:25:51;95326.53;;;12.78;100.00
1832;BME280;1680;48.106;11.708;2023-05-14T07:28:18;95323.03;;;12.73;100.00
1832;BME280;1680;48.106;11.708;2023-05-14T07:30:45;95321.09;;;12.85;100.00
1832;BME280;1680;48.106;11.708;2023-05-14T07:33:12;95313.31;;;12.90;100.00
1832;BME280;1680;48.106;11.708;2023-05-14T07:35:39;95308.28;;;12.88;100.00
1832;BME280;1680;48.106;11.708;2023-05-14T07:38:08;95309.16;;;12.94;100.00
1832;BME280;1680;48.106;11.708;2023-05-14T07:40:35;95301.22;;;13.10;100.00
1832;BME280;1680;48.106;11.708;2023-05-14T07:43:03;95296.34;;;13.19;100.00
1832;BME280;1680;48.106;11.708;2023-05-14T07:45:30;95306.38;;;13.22;100.00
1832;BME280;1680;48.106;11.708;2023-05-14T07:47:57;95314.03;;;13.45;100.00
1832;BME280;1680;48.106;11.708;2023-05-14T07:50:24;95309.41;;;13.52;100.00
1832;BME280;1680;48.106;11.708;2023-05-14T07:52:51;95256.56;;;13.20;100.00
1832;BME280;1680;48.106;11.708;2023-05-14T07:55:20;95323.81;;;13.65;100.00
1832;BME280;1680;48.106;11.708;2023-05-14T07:57:47;95316.88;;;13.59;100.00
1832;BME280;1680;48.106;11.708;2023-05-14T08:00:15;95312.16;;;13.61;100.00
1832;BME280;1680;48.106;11.708;2023-05-14T08:02:42;95317.72;;;13.44;100.00
1832;BME280;1680;48.106;11.708;2023-05-14T08:05:10;95316.81;;;13.55;100.00
1832;BME280;1680;48.106;11.708;2023-05-14T08:07:37;95324.66;;;13.50;100.00
1832;BME280;1680;48.106;11.708;2023-05-14T08:10:05;95336.88;;;13.56;100.00
1832;BME280;1680;48.106;11.708;2023-05-14T08:12:33;95327.22;;;13.45;100.00
1832;BME280;1680;48.106;11.708;2023-05-14T08:15:01;95324.59;;;13.45;100.00
1832;BME280;1680;48.106;11.708;2023-05-14T08:17:28;95324.16;;;13.31;100.00
1832;BME280;1680;48.106;11.708;2023-05-14T08:19:56;95333.41;;;13.34;100.00
1832;BME280;1680;48.106;11.708;2023-05-14T08:22:23;95322.19;;;13.22;100.00
1832;BME280;1680;48.106;11.708;2023-05-14T08:24:50;95332.50;;;13.07;100.00
1832;BME280;1680;48.106;11.708;2023-05-14T08:27:17;95328.09;;;13.12;100.00
1832;BME280;1680;48.106;11.708;2023-05-14T08:29:47;95319.59;;;13.27;100.00
1832;BME280;1680;48.106;11.708;2023-05-14T08:32:14;95240.00;;;12.98;100.00
1832;BME280;1680;48.106;11.708;2023-05-14T08:34:41;95324.09;;;13.48;100.00
1832;BME280;1680;48.106;11.708;2023-05-14T08:37:08;95311.38;;;13.40;100.00
1832;BME280;1680;48.106;11.708;2023-05-14T08:39:35;95314.31;;;13.43;100.00
1832;BME280;1680;48.106;11.708;2023-05-14T08:42:05;95315.53;;;13.36;100.00
1832;BME280;1680;48.106;11.708;2023-05-14T08:44:38;95316.84;;;13.38;100.00
1832;BME280;1680;48.106;11.708;2023-05-14T08:47:11;95308.03;;;13.49;100.00
1832;BME280;1680;48.106;11.708;2023-05-14T08:49:41;95305.34;;;13.44;100.00
1832;BME280;1680;48.106;11.708;2023-05-14T08:52:09;95310.75;;;13.54;100.00
1832;BME280;1680;48.106;11.708;2023-05-14T08:54:36;95316.75;;;13.50;100.00
1832;BME280;1680;48.106;11.708;2023-05-14T08:57:05;95308.59;;;13.51;100.00
1832;BME280;1680;48.106;11.708;2023-05-14T08:59:33;95298.69;;;13.37;100.00
1832;BME280;1680;48.106;11.708;2023-05-14T09:02:02;95276.50;;;13.33;100.00
1832;BME280;1680;48.106;11.708;2023-05-14T09:04:31;95302.59;;;13.56;100.00
1832;BME280;1680;48.106;11.708;2023-05-14T09:07:00;95301.00;;;13.55;100.00
1832;BME280;1680;48.106;11.708;2023-05-14T09:09:28;95295.22;;;13.57;100.00
1832;BME280;1680;48.106;11.708;2023-05-14T09:11:56;95296.09;;;13.63;100.00
1832;BME280;1680;48.106;11.708;2023-05-14T09:14:23;95298.97;;;13.61;100.00
1832;BME280;1680;48.106;11.708;2023-05-14T09:16:50;95305.28;;;13.60;100.00
1832;BME280;1680;48.106;11.708;2023-05-14T09:19:19;95297.44;;;13.65;100.00
1832;BME280;1680;48.106;11.708;2023-05-14T09:21:49;95296.16;;;13.68;100.00
1832;BME280;1680;48.106;11.708;2023-05-14T09:24:20;95297.09;;;13.57;100.00
1832;BME280;1680;48.106;11.708;2023-05-14T09:26:49;95299.41;;;13.54;100.00
1832;BME280;1680;48.106;11.708;2023-05-14T09:29:17;95306.63;;;13.42;100.00
1832;BME280;1680;48.106;11.708;2023-05-14T09:31:44;95305.66;;;13.48;100.00
1832;BME280;1680;48.106;11.708;2023-05-14T09:34:22;95311.75;;;13.48;100.00
1832;BME280;1680;48.106;11.708;2023-05-14T09:36:54;95305.78;;;13.57;100.00
1832;BME280;1680;48.106;11.708;2023-05-14T09:39:22;95313.47;;;13.64;100.00
1832;BME280;1680;48.106;11.708;2023-05-14T09:41:49;95310.94;;;13.48;100.00
1832;BME280;1680;48.106;11.708;2023-05-14T09:44:17;95309.44;;;13.56;100.00
1832;BME280;1680;48.106;11.708;2023-05-14T09:46:44;95304.63;;;13.49;100.00
1832;BME280;1680;48.106;11.708;2023-05-14T09:49:12;95303.88;;;13.32;100.00
1832;BME280;1680;48.106;11.708;2023-05-14T09:51:39;95292.94;;;13.40;100.00
1832;BME280;1680;48.106;11.708;2023-05-14T09:54:08;95295.06;;;13.43;100.00
1832;BME280;1680;48.106;11.708;2023-05-14T09:56:36;95300.38;;;13.48;100.00
1832;BME280;1680;48.106;11.708;2023-05-14T09:59:04;95304.16;;;13.56;100.00
1832;BME280;1680;48.106;11.708;2023-05-14T10:01:31;95297.28;;;13.51;100.00
1832;BME280;1680;48.106;11.708;2023-05-14T10:03:59;95260.88;;;13.26;100.00
1832;BME280;1680;48.106;11.708;2023-05-14T10:06:32;95291.75;;;13.52;100.00
1832;BME280;1680;48.106;11.708;2023-05-14T10:09:03;95293.63;;;13.56;100.00
1832;BME280;1680;48.106;11.708;2023-05-14T10:11:33;95294.75;;;13.60;100.00
1832;BME280;1680;48.106;11.708;2023-05-14T10:14:06;95243.38;;;13.37;100.00
1832;BME280;1680;48.106;11.708;2023-05-14T10:16:36;95285.00;;;13.61;100.00
1832;BME280;1680;48.106;11.708;2023-05-14T10:19:06;95287.63;;;13.82;100.00
1832;BME280;1680;48.106;11.708;2023-05-14T10:21:35;95300.75;;;13.77;100.00
1832;BME280;1680;48.106;11.708;2023-05-14T10:24:04;95304.03;;;13.89;100.00
1832;BME280;1680;48.106;11.708;2023-05-14T10:26:36;95305.13;;;13.93;100.00
1832;BME280;1680;48.106;11.708;2023-05-14T10:29:05;95304.47;;;13.81;100.00
1832;BME280;1680;48.106;11.708;2023-05-14T10:31:48;95308.38;;;14.00;100.00
1832;BME280;1680;48.106;11.708;2023-05-14T10:34:36;95303.53;;;13.92;100.00
1832;BME280;1680;48.106;11.708;2023-05-14T10:37:07;95304.50;;;13.86;100.00
1832;BME280;1680;48.106;11.708;2023-05-14T10:39:42;95312.94;;;13.83;100.00
1832;BME280;1680;48.106;11.708;2023-05-14T10:42:11;95300.31;;;13.85;100.00
1832;BME280;1680;48.106;11.708;2023-05-14T10:44:44;95313.41;;;14.02;100.00
1832;BME280;1680;48.106;11.708;2023-05-14T10:47:14;95301.13;;;14.12;100.00
1832;BME280;1680;48.106;11.708;2023-05-14T10:49:42;95304.34;;;14.14;100.00
1832;BME280;1680;48.106;11.708;2023-05-14T10:52:11;95300.16;;;13.97;100.00
1832;BME280;1680;48.106;11.708;2023-05-14T10:54:38;95300.97;;;13.97;100.00
1832;BME280;1680;48.106;11.708;2023-05-14T10:57:11;95289.84;;;14.17;100.00
1832;BME280;1680;48.106;11.708;2023-05-14T10:59:41;95298.47;;;14.39;100.00
1832;BME280;1680;48.106;11.708;2023-05-14T11:02:19;95289.88;;;14.53;99.08
1832;BME280;1680;48.106;11.708;2023-05-14T11:04:57;95294.06;;;14.44;97.79
1832;BME280;1680;48.106;11.708;2023-05-14T11:07:28;95290.31;;;14.76;98.20
1832;BME280;1680;48.106;11.708;2023-05-14T11:10:03;95278.94;;;15.12;96.66
1832;BME280;1680;48.106;11.708;2023-05-14T11:12:32;95286.75;;;15.34;93.92
1832;BME280;1680;48.106;11.708;2023-05-14T11:15:01;95290.56;;;15.67;90.59
1832;BME280;1680;48.106;11.708;2023-05-14T11:17:30;95276.34;;;15.83;88.53
1832;BME280;1680;48.106;11.708;2023-05-14T11:19:58;95273.78;;;16.18;87.10
1832;BME280;1680;48.106;11.708;2023-05-14T11:22:26;95265.88;;;16.43;85.47
1832;BME280;1680;48.106;11.708;2023-05-14T11:24:53;95260.00;;;16.26;85.20
1832;BME280;1680;48.106;11.708;2023-05-14T11:27:21;95265.91;;;16.48;86.59
1832;BME280;1680;48.106;11.708;2023-05-14T11:29:50;95260.00;;;17.06;86.33
1832;BME280;1680;48.106;11.708;2023-05-14T11:32:18;95255.88;;;17.58;80.23
1832;BME280;1680;48.106;11.708;2023-05-14T11:34:46;95261.94;;;17.68;77.45
1832;BME280;1680;48.106;11.708;2023-05-14T11:37:15;95247.94;;;17.58;77.09
1832;BME280;1680;48.106;11.708;2023-05-14T11:39:46;95255.63;;;17.59;78.34
1832;BME280;1680;48.106;11.708;2023-05-14T11:42:14;95254.91;;;17.29;78.50
1832;BME280;1680;48.106;11.708;2023-05-14T11:44:45;95229.50;;;17.08;77.58
1832;BME280;1680;48.106;11.708;2023-05-14T11:47:15;95259.94;;;17.36;78.07
1832;BME280;1680;48.106;11.708;2023-05-14T11:49:42;95258.34;;;17.35;77.76
1832;BME280;1680;48.106;11.708;2023-05-14T11:52:10;95252.00;;;17.31;76.48
1832;BME280;1680;48.106;11.708;2023-05-14T11:54:39;95251.00;;;17.02;78.18
1832;BME280;1680;48.106;11.708;2023-05-14T11:57:08;95191.75;;;16.63;78.42
1832;BME280;1680;48.106;11.708;2023-05-14T11:59:36;95239.09;;;17.04;79.94
1832;BME280;1680;48.106;11.708;2023-05-14T12:02:04;95240.41;;;17.02;78.99
1832;BME280;1680;48.106;11.708;2023-05-14T12:04:33;95233.22;;;17.12;77.51
1832;BME280;1680;48.106;11.708;2023-05-14T12:07:07;95231.41;;;16.98;77.88
1832;BME280;1680;48.106;11.708;2023-05-14T12:09:36;95224.00;;;16.95;77.80
1832;BME280;1680;48.106;11.708;2023-05-14T12:12:07;95224.22;;;17.13;76.09
1832;BME280;1680;48.106;11.708;2023-05-14T12:14:36;95218.69;;;17.00;76.13
1832;BME280;1680;48.106;11.708;2023-05-14T12:17:10;95210.69;;;17.15;75.49
1832;BME280;1680;48.106;11.708;2023-05-14T12:19:40;95212.63;;;16.79;76.20
1832;BME280;1680;48.106;11.708;2023-05-14T12:22:08;95214.53;;;16.64;78.72
1832;BME280;1680;48.106;11.708;2023-05-14T12:24:35;95215.53;;;16.88;79.15
1832;BME280;1680;48.106;11.708;2023-05-14T12:27:04;95198.72;;;17.37;78.15
1832;BME280;1680;48.106;11.708;2023-05-14T12:29:35;95202.69;;;17.40;76.41
1832;BME280;1680;48.106;11.708;2023-05-14T12:32:06;95188.97;;;17.08;76.32
1832;BME280;1680;48.106;11.708;2023-05-14T12:34:34;95186.84;;;17.10;75.03
1832;BME280;1680;48.106;11.708;2023-05-14T12:37:04;95183.97;;;17.01;74.24
1832;BME280;1680;48.106;11.708;2023-05-14T12:39:32;95184.22;;;17.05;74.84
1832;BME280;1680;48.106;11.708;2023-05-14T12:42:00;95194.81;;;17.05;75.91
1832;BME280;1680;48.106;11.708;2023-05-14T12:44:27;95179.69;;;17.10;74.77
1832;BME280;1680;48.106;11.708;2023-05-14T12:46:54;95173.78;;;17.28;73.38
1832;BME280;1680;48.106;11.708;2023-05-14T12:49:22;95173.56;;;17.30;74.43
1832;BME280;1680;48.106;11.708;2023-05-14T12:51:49;95167.78;;;17.08;72.37
1832;BME280;1680;48.106;11.708;2023-05-14T12:54:17;95169.97;;;16.91;78.19
1832;BME280;1680;48.106;11.708;2023-05-14T12:56:45;95159.44;;;16.56;74.60
1832;BME280;1680;48.106;11.708;2023-05-14T12:59:12;95151.28;;;16.38;75.43
1832;BME280;1680;48.106;11.708;2023-05-14T13:01:39;95163.19;;;16.55;75.45
1832;BME280;1680;48.106;11.708;2023-05-14T13:04:08;95164.63;;;17.01;74.79
1832;BME280;1680;48.106;11.708;2023-05-14T13:06:37;95166.91;;;17.32;74.14
1832;BME280;1680;48.106;11.708;2023-05-14T13:09:04;95155.13;;;17.00;73.80